Time;durP1;ratioP1;P1;durP2;ratioP2;P2;SDS_P1;SDS_P2;PMS_P1;PMS_P2;Temp;Humidity;BMP_temperature;BMP_pressure;BME280_temperature;BME280_humidity;BME280_pressure;Samples;Min_cycle;Max_cycle;Signal;HPM_P1;HPM_P2
2023/07/01 00:00:59;;;;;;;;;;;;;;;23.42;52.21;95203.88;10393650;28;2190;-67
2023/07/01 00:06:00;;;;;;;;;;;;;;;23.42;52.46;95201.25;10390879;28;2058;-69
2023/07/01 00:11:00;;;;;;;;;;;;;;;23.40;52.48;95203.41;10393013;28;2041;-65
2023/07/01 00:16:01;;;;;;;;;;;;;;;23.38;52.41;95205.59;10393343;28;2069;-64
2023/07/01 00:21:01;;;;;;;;;;;;;;;23.37;52.59;95212.72;10392090;28;1977;-65
2023/07/01 00:26:02;;;;;;;;;;;;;;;23.36;52.50;95205.09;10393824;28;1986;-66
2023/07/01 00:31:03;;;;;;;;;;;;;;;23.35;52.60;95204.31;10393183;28;2013;-69
2023/07/01 00:36:03;;;;;;;;;;;;;;;23.34;52.42;95204.63;10391691;28;2098;-69
2023/07/01 00:41:03;;;;;;;;;;;;;;;23.30;52.70;95204.44;10389133;28;4384;-67
2023/07/01 00:46:04;;;;;;;;;;;;;;;23.25;52.91;95196.63;10389540;28;1981;-73
2023/07/01 00:51:04;;;;;;;;;;;;;;;23.26;53.15;95200.06;10376774;28;2016;-66
2023/07/01 00:56:04;;;;;;;;;;;;;;;23.24;53.03;95204.84;10367038;28;2423;-70
2023/07/01 01:01:05;;;;;;;;;;;;;;;23.23;53.17;95201.44;10388303;28;2233;-66
2023/07/01 01:06:16;;;;;;;;;;;;;;;23.20;53.17;95204.69;10389981;28;1974;-66
2023/07/01 01:11:16;;;;;;;;;;;;;;;23.20;53.21;95206.56;10388029;28;1998;-66
2023/07/01 01:16:17;;;;;;;;;;;;;;;23.18;53.29;95201.56;10371455;28;2064;-65
2023/07/01 01:21:17;;;;;;;;;;;;;;;23.18;53.36;95200.78;10387358;28;1945;-65
2023/07/01 01:26:18;;;;;;;;;;;;;;;23.19;53.58;95202.34;10371222;28;2104;-66
2023/07/01 01:31:19;;;;;;;;;;;;;;;23.20;53.29;95195.97;10386346;28;1927;-65
2023/07/01 01:36:30;;;;;;;;;;;;;;;23.16;53.39;95193.13;10385725;28;2065;-65
2023/07/01 01:41:51;;;;;;;;;;;;;;;23.17;53.23;95194.72;10373832;28;4332;-66
2023/07/01 01:46:51;;;;;;;;;;;;;;;23.16;53.37;95192.38;10361157;28;2134;-65
2023/07/01 01:51:51;;;;;;;;;;;;;;;23.17;53.26;95194.72;10407179;28;2380;-66
2023/07/01 01:56:52;;;;;;;;;;;;;;;23.16;53.50;95198.41;10397848;28;2049;-65
2023/07/01 02:01:52;;;;;;;;;;;;;;;23.16;53.35;95197.66;10399408;28;2032;-65
2023/07/01 02:06:52;;;;;;;;;;;;;;;23.16;53.22;95192.38;10382789;28;1944;-65
2023/07/01 02:11:52;;;;;;;;;;;;;;;23.17;53.06;95189.41;10398621;28;1966;-66
2023/07/01 02:16:54;;;;;;;;;;;;;;;23.18;53.22;95188.34;10397336;28;1942;-65
2023/07/01 02:21:54;;;;;;;;;;;;;;;23.17;53.04;95194.72;10396210;28;1898;-65
2023/07/01 02:26:54;;;;;;;;;;;;;;;23.16;53.00;95202.94;10396051;28;1928;-66
2023/07/01 02:31:55;;;;;;;;;;;;;;;23.17;52.79;95202.63;10392540;28;2024;-65
2023/07/01 02:36:55;;;;;;;;;;;;;;;23.18;52.56;95206.06;10382391;28;1898;-66
2023/07/01 02:41:55;;;;;;;;;;;;;;;23.18;52.67;95201.56;10395770;28;4474;-65
2023/07/01 02:46:56;;;;;;;;;;;;;;;23.18;52.54;95209.50;10394111;28;2227;-65
2023/07/01 02:51:56;;;;;;;;;;;;;;;23.18;52.34;95206.06;10399588;28;1972;-65
2023/07/01 02:56:56;;;;;;;;;;;;;;;23.17;52.39;95205.28;10399368;28;2014;-65
2023/07/01 03:01:56;;;;;;;;;;;;;;;23.15;52.29;95211.94;10399104;28;1910;-65
2023/07/01 03:06:57;;;;;;;;;;;;;;;23.11;52.19;95216.28;10399912;28;1904;-64
2023/07/01 03:11:58;;;;;;;;;;;;;;;23.08;52.28;95215.03;10406530;28;1923;-64
2023/07/01 03:16:58;;;;;;;;;;;;;;;22.93;52.36;95211.97;10406090;28;2277;-64
2023/07/01 03:21:58;;;;;;;;;;;;;;;22.94;52.33;95224.09;10400704;28;1917;-64
2023/07/01 03:27:06;;;;;;;;;;;;;;;22.89;52.11;95234.81;10406685;28;2002;-64
2023/07/01 03:32:06;;;;;;;;;;;;;;;22.84;52.31;95229.63;10402321;28;2007;-64
2023/07/01 03:37:06;;;;;;;;;;;;;;;22.80;52.06;95239.22;10410265;28;2149;-64
2023/07/01 03:42:07;;;;;;;;;;;;;;;22.73;52.06;95244.16;10406223;28;4462;-64
2023/07/01 03:47:07;;;;;;;;;;;;;;;22.73;52.17;95242.28;10404858;28;1987;-64
2023/07/01 03:52:07;;;;;;;;;;;;;;;22.74;52.02;95243.06;10408482;28;1972;-65
2023/07/01 03:57:08;;;;;;;;;;;;;;;22.71;52.11;95247.09;10408928;28;1962;-64
2023/07/01 04:02:08;;;;;;;;;;;;;;;22.73;52.30;95244.91;10406148;28;1911;-65
2023/07/01 04:07:08;;;;;;;;;;;;;;;22.72;52.27;95245.22;10404556;28;1977;-64
2023/07/01 04:12:08;;;;;;;;;;;;;;;22.71;52.20;95239.16;10399302;28;2172;-64
2023/07/01 04:17:09;;;;;;;;;;;;;;;22.73;52.30;95244.16;10401496;28;2012;-64
2023/07/01 04:22:09;;;;;;;;;;;;;;;22.68;52.04;95250.34;10400116;28;2009;-63
2023/07/01 04:27:09;;;;;;;;;;;;;;;22.71;51.85;95241.81;10405235;28;1995;-64
2023/07/01 04:32:09;;;;;;;;;;;;;;;22.71;51.75;95235.75;10400547;28;2126;-63
2023/07/01 04:37:10;;;;;;;;;;;;;;;22.73;51.85;95244.16;10404094;28;2423;-64
2023/07/01 04:42:10;;;;;;;;;;;;;;;22.72;51.90;95232.81;10413323;28;4581;-64
2023/07/01 04:47:11;;;;;;;;;;;;;;;22.75;51.68;95247.28;10404714;28;1955;-65
2023/07/01 04:52:14;;;;;;;;;;;;;;;22.76;51.82;95241.69;10408623;28;1957;-64
2023/07/01 04:57:15;;;;;;;;;;;;;;;22.79;51.62;95250.91;10402431;28;1917;-64
2023/07/01 05:02:15;;;;;;;;;;;;;;;22.80;51.72;95247.16;10398414;28;1981;-64
2023/07/01 05:07:15;;;;;;;;;;;;;;;22.78;51.52;95249.31;10405986;28;1977;-64
2023/07/01 05:12:15;;;;;;;;;;;;;;;22.76;51.52;95262.06;10399840;28;1964;-64
2023/07/01 05:17:16;;;;;;;;;;;;;;;22.76;51.29;95262.84;10402067;28;1925;-65
2023/07/01 05:22:16;;;;;;;;;;;;;;;22.76;51.49;95275.25;10401785;28;2011;-64
2023/07/01 05:27:16;;;;;;;;;;;;;;;22.78;51.41;95273.09;10400678;28;1921;-64
2023/07/01 05:32:16;;;;;;;;;;;;;;;22.79;51.57;95278.09;10403161;28;1940;-64
2023/07/01 05:37:17;;;;;;;;;;;;;;;22.79;51.61;95274.69;10405402;28;2234;-64
2023/07/01 05:42:17;;;;;;;;;;;;;;;22.80;51.36;95273.59;10398181;28;4454;-64
2023/07/01 05:47:17;;;;;;;;;;;;;;;22.81;51.41;95285.72;10400432;28;1952;-64
2023/07/01 05:52:17;;;;;;;;;;;;;;;22.81;51.19;95285.72;10397608;28;1906;-64
2023/07/01 05:57:18;;;;;;;;;;;;;;;22.82;51.42;95282.00;10400284;28;1913;-65
2023/07/01 06:02:18;;;;;;;;;;;;;;;22.80;51.34;95286.78;10399340;28;1974;-64
2023/07/01 06:07:18;;;;;;;;;;;;;;;22.77;51.34;95279.47;10401705;28;1939;-64
2023/07/01 06:12:19;;;;;;;;;;;;;;;22.74;51.29;95280.84;10397389;28;1911;-64
2023/07/01 06:17:19;;;;;;;;;;;;;;;22.72;51.75;95283.00;10408609;28;2005;-64
2023/07/01 06:22:19;;;;;;;;;;;;;;;22.68;51.65;95282.03;10399020;28;1953;-64
2023/07/01 06:27:19;;;;;;;;;;;;;;;22.72;51.67;95284.88;10397063;28;2108;-63
2023/07/01 06:32:20;;;;;;;;;;;;;;;22.72;51.80;95287.50;10399583;28;2401;-67
2023/07/01 06:37:20;;;;;;;;;;;;;;;22.72;51.97;95282.22;10396328;28;2072;-64
2023/07/01 06:42:20;;;;;;;;;;;;;;;22.65;51.83;95283.41;10398196;28;4525;-65
2023/07/01 06:47:20;;;;;;;;;;;;;;;22.67;51.77;95289.19;10395439;28;1881;-64
2023/07/01 06:52:21;;;;;;;;;;;;;;;22.67;51.83;95291.03;10397833;28;2003;-64
2023/07/01 06:57:21;;;;;;;;;;;;;;;22.67;51.73;95298.19;10400407;28;1959;-64
2023/07/01 07:02:21;;;;;;;;;;;;;;;22.70;52.12;95297.59;10393028;28;1920;-64
2023/07/01 07:07:22;;;;;;;;;;;;;;;22.70;52.07;95298.38;10397411;28;1962;-66
2023/07/01 07:12:22;;;;;;;;;;;;;;;22.71;51.81;95288.59;10411126;28;2029;-66
2023/07/01 07:17:22;;;;;;;;;;;;;;;22.71;52.11;95285.97;10399580;28;1984;-69
2023/07/01 07:22:22;;;;;;;;;;;;;;;22.72;52.00;95288.28;10402135;28;1929;-69
2023/07/01 07:27:23;;;;;;;;;;;;;;;22.75;52.07;95286.94;10394942;28;2242;-67
2023/07/01 07:32:23;;;;;;;;;;;;;;;22.78;51.98;95278.38;10394368;28;2081;-67
2023/07/01 07:37:23;;;;;;;;;;;;;;;22.78;51.73;95283.66;10397880;28;1973;-68
2023/07/01 07:42:23;;;;;;;;;;;;;;;22.78;51.83;95281.81;10396924;28;4494;-68
2023/07/01 07:47:24;;;;;;;;;;;;;;;22.74;51.26;95280.06;10395239;28;2221;-72
2023/07/01 07:52:24;;;;;;;;;;;;;;;22.72;51.31;95282.22;10395963;28;1985;-69
2023/07/01 07:57:24;;;;;;;;;;;;;;;22.73;51.18;95278.50;10402772;28;2006;-68
2023/07/01 08:02:24;;;;;;;;;;;;;;;22.71;51.01;95275.38;10404255;28;1999;-68
2023/07/01 08:07:25;;;;;;;;;;;;;;;22.73;51.13;95265.31;10406832;28;1887;-68
2023/07/01 08:12:25;;;;;;;;;;;;;;;22.72;51.02;95271.66;10406477;28;1963;-69
2023/07/01 08:17:25;;;;;;;;;;;;;;;22.71;51.00;95268.22;10383566;28;1965;-68
2023/07/01 08:22:26;;;;;;;;;;;;;;;22.74;51.00;95269.50;10403115;28;2290;-68
2023/07/01 08:27:26;;;;;;;;;;;;;;;22.73;50.76;95260.78;10405581;28;1969;-68
2023/07/01 08:32:26;;;;;;;;;;;;;;;22.72;50.60;95251.31;10384467;28;1879;-68
2023/07/01 08:37:27;;;;;;;;;;;;;;;22.67;50.50;95254.03;10402070;28;1950;-68
2023/07/01 08:42:29;;;;;;;;;;;;;;;22.71;50.26;95248.97;10399648;28;4602;-68
2023/07/01 08:47:30;;;;;;;;;;;;;;;22.75;50.45;95236.72;10403145;28;1921;-68
2023/07/01 08:52:30;;;;;;;;;;;;;;;22.72;49.82;95246.03;10401699;28;1892;-69
2023/07/01 08:57:30;;;;;;;;;;;;;;;22.67;49.35;95243.47;10403705;28;2016;-68
2023/07/01 09:02:30;;;;;;;;;;;;;;;22.67;49.30;95236.34;10401783;28;1975;-68
2023/07/01 09:07:31;;;;;;;;;;;;;;;22.71;49.42;95241.03;10388401;28;1953;-66
2023/07/01 09:12:31;;;;;;;;;;;;;;;22.71;49.01;95225.19;10401171;28;2032;-69
2023/07/01 09:17:32;;;;;;;;;;;;;;;22.70;48.77;95237.63;10400567;28;1963;-69
2023/07/01 09:22:33;;;;;;;;;;;;;;;22.70;48.47;95226.25;10409463;28;2262;-68
2023/07/01 09:27:39;;;;;;;;;;;;;;;22.67;48.38;95214.41;10400986;28;1902;-70
2023/07/01 09:32:40;;;;;;;;;;;;;;;22.71;48.62;95211.97;10400659;28;1885;-66
2023/07/01 09:37:40;;;;;;;;;;;;;;;22.72;48.84;95216.16;10400889;28;2046;-63
2023/07/01 09:42:50;;;;;;;;;;;;;;;22.77;49.02;95211.56;10399004;28;1971;-63
2023/07/01 09:47:53;;;;;;;;;;;;;;;22.77;48.37;95211.56;10384487;28;2040;-65
2023/07/01 09:52:55;;;;;;;;;;;;;;;22.77;48.44;95200.22;10396044;28;2030;-65
2023/07/01 09:57:56;;;;;;;;;;;;;;;22.74;48.13;95200.78;10403694;28;1921;-64
2023/07/01 10:02:57;;;;;;;;;;;;;;;22.75;47.98;95191.81;10399061;28;1961;-66
2023/07/01 10:07:57;;;;;;;;;;;;;;;22.73;47.84;95191.31;10394730;28;1972;-64
2023/07/01 10:12:57;;;;;;;;;;;;;;;22.73;47.82;95201.88;10400351;28;1937;-65
2023/07/01 10:17:57;;;;;;;;;;;;;;;22.75;48.16;95184.63;10376326;28;2301;-67
2023/07/01 10:22:58;;;;;;;;;;;;;;;22.78;48.38;95184.03;10381035;28;1987;-67
2023/07/01 10:28:14;;;;;;;;;;;;;;;22.78;48.45;95186.69;10396917;28;2001;-67
2023/07/01 10:33:36;;;;;;;;;;;;;;;22.83;48.45;95173.38;10397985;28;2007;-67
2023/07/01 10:38:36;;;;;;;;;;;;;;;22.83;48.45;95168.09;10401189;28;1936;-67
2023/07/01 10:43:37;;;;;;;;;;;;;;;22.84;48.54;95168.84;10398158;28;4453;-74
2023/07/01 10:48:40;;;;;;;;;;;;;;;22.86;48.57;95162.19;10400200;28;2038;-73
2023/07/01 10:53:57;;;;;;;;;;;;;;;22.85;48.38;95155.34;10396208;28;1950;-72
2023/07/01 10:59:16;;;;;;;;;;;;;;;22.84;48.24;95148.50;10399630;28;1955;-71
2023/07/01 11:04:16;;;;;;;;;;;;;;;22.86;48.02;95140.25;10397340;28;2021;-72
2023/07/01 11:09:31;;;;;;;;;;;;;;;22.84;48.17;95132.63;10399131;28;1905;-71
2023/07/01 11:14:38;;;;;;;;;;;;;;;22.86;47.70;95121.75;10399248;28;2218;-71
2023/07/01 11:19:38;;;;;;;;;;;;;;;22.86;47.80;95113.81;10397245;28;2014;-71
2023/07/01 11:24:39;;;;;;;;;;;;;;;22.85;47.50;95115.72;10401003;28;2032;-71
2023/07/01 11:29:40;;;;;;;;;;;;;;;22.85;47.37;95099.06;10402553;28;1902;-70
2023/07/01 11:34:41;;;;;;;;;;;;;;;22.84;46.99;95100.13;10391013;28;1919;-68
2023/07/01 11:39:42;;;;;;;;;;;;;;;22.82;46.94;95099.66;10414982;28;1988;-68
2023/07/01 11:44:42;;;;;;;;;;;;;;;22.84;46.84;95108.06;10390802;28;4475;-68
2023/07/01 11:49:42;;;;;;;;;;;;;;;22.81;46.31;95109.47;10407611;28;2083;-68
2023/07/01 11:54:44;;;;;;;;;;;;;;;22.80;46.32;95109.75;10398841;28;1894;-68
2023/07/01 11:59:45;;;;;;;;;;;;;;;22.77;45.74;95111.16;10393595;28;1908;-68
2023/07/01 12:04:50;;;;;;;;;;;;;;;22.76;45.83;95103.50;10381357;28;2006;-69
2023/07/01 12:09:51;;;;;;;;;;;;;;;22.79;45.96;95093.13;10403339;28;1988;-68
2023/07/01 12:14:59;;;;;;;;;;;;;;;22.82;46.50;95092.53;10415762;28;2006;-68
2023/07/01 12:19:59;;;;;;;;;;;;;;;22.85;46.67;95089.28;10404521;28;1929;-68
2023/07/01 12:25:00;;;;;;;;;;;;;;;22.90;46.86;95080.41;10386321;28;1949;-68
2023/07/01 12:30:01;;;;;;;;;;;;;;;22.95;46.83;95086.38;10404070;28;2002;-68
2023/07/01 12:35:01;;;;;;;;;;;;;;;22.95;46.64;95075.03;10404871;28;1963;-68
2023/07/01 12:40:03;;;;;;;;;;;;;;;22.97;46.35;95070.19;10396608;28;1975;-69
2023/07/01 12:45:05;;;;;;;;;;;;;;;23.00;46.69;95064.31;10388384;28;4525;-66
2023/07/01 12:50:07;;;;;;;;;;;;;;;23.05;46.54;95064.16;10402660;28;1903;-67
2023/07/01 12:55:08;;;;;;;;;;;;;;;23.06;46.55;95063.84;10401736;28;1938;-67
2023/07/01 13:00:09;;;;;;;;;;;;;;;23.09;46.51;95054.53;10402275;28;1977;-67
2023/07/01 13:05:10;;;;;;;;;;;;;;;23.10;46.50;95050.84;10403238;28;2238;-67
2023/07/01 13:10:11;;;;;;;;;;;;;;;23.12;46.53;95043.38;10412904;28;1962;-66
2023/07/01 13:15:18;;;;;;;;;;;;;;;23.10;46.09;95041.00;10400963;28;1946;-67
2023/07/01 13:20:20;;;;;;;;;;;;;;;23.13;46.25;95031.69;10400183;28;1980;-66
2023/07/01 13:25:22;;;;;;;;;;;;;;;23.10;45.90;95019.09;10385710;28;2021;-67
2023/07/01 13:30:26;;;;;;;;;;;;;;;23.11;45.55;95007.44;10395891;28;2016;-68
2023/07/01 13:35:26;;;;;;;;;;;;;;;23.13;45.47;95007.91;10402077;28;2077;-68
2023/07/01 13:40:27;;;;;;;;;;;;;;;23.12;45.89;94998.44;10404658;28;1975;-67
2023/07/01 13:45:27;;;;;;;;;;;;;;;23.17;45.99;94998.28;10398563;28;4553;-64
2023/07/01 13:50:28;;;;;;;;;;;;;;;23.19;46.27;94990.81;10401107;28;2120;-68
2023/07/01 13:55:28;;;;;;;;;;;;;;;23.20;46.23;95002.97;10409196;28;2019;-69
2023/07/01 14:00:31;;;;;;;;;;;;;;;23.18;45.79;94994.56;10396465;28;2341;-69
2023/07/01 14:05:32;;;;;;;;;;;;;;;23.14;44.69;94991.72;10399640;28;1886;-69
2023/07/01 14:10:35;;;;;;;;;;;;;;;23.13;45.16;94994.69;10382297;28;1949;-69
2023/07/01 14:15:40;;;;;;;;;;;;;;;23.15;45.37;94985.38;10398059;28;1908;-68
2023/07/01 14:20:43;;;;;;;;;;;;;;;23.15;45.58;94966.06;10398242;28;1941;-67
2023/07/01 14:25:44;;;;;;;;;;;;;;;23.17;45.83;94969.97;10398317;28;1993;-67
2023/07/01 14:30:57;;;;;;;;;;;;;;;23.20;46.14;94968.59;10380194;28;1938;-67
2023/07/01 14:35:57;;;;;;;;;;;;;;;23.21;46.19;94957.69;10395625;28;1906;-63
2023/07/01 14:40:57;;;;;;;;;;;;;;;23.23;46.14;94965.31;10396886;28;1973;-66
2023/07/01 14:45:58;;;;;;;;;;;;;;;23.23;45.51;94957.38;10396173;28;4799;-66
2023/07/01 14:50:58;;;;;;;;;;;;;;;23.25;45.89;94955.19;10400966;28;1984;-69
2023/07/01 14:55:58;;;;;;;;;;;;;;;23.24;45.93;94951.03;10378633;28;2262;-68
2023/07/01 15:00:58;;;;;;;;;;;;;;;23.22;45.35;94956.63;10382865;28;2010;-70
2023/07/01 15:05:59;;;;;;;;;;;;;;;23.23;45.47;94954.72;10380783;28;1936;-69
2023/07/01 15:10:59;;;;;;;;;;;;;;;23.21;45.45;94952.41;10398629;28;1955;-69
2023/07/01 15:16:00;;;;;;;;;;;;;;;23.23;45.52;94937.00;10410527;28;2006;-70
2023/07/01 15:21:00;;;;;;;;;;;;;;;23.19;44.66;94940.56;10410131;28;2123;-70
2023/07/01 15:26:01;;;;;;;;;;;;;;;23.19;44.85;94941.38;10410290;28;1924;-69
2023/07/01 15:31:05;;;;;;;;;;;;;;;23.20;44.86;94944.78;10398001;28;1945;-68
2023/07/01 15:36:05;;;;;;;;;;;;;;;23.20;44.93;94936.84;10399449;28;1980;-70
2023/07/01 15:41:06;;;;;;;;;;;;;;;23.21;44.83;94925.19;10403765;28;4528;-67
2023/07/01 15:46:06;;;;;;;;;;;;;;;23.20;44.54;94915.72;10399201;28;2070;-69
2023/07/01 15:51:06;;;;;;;;;;;;;;;23.19;43.95;94922.84;10399738;28;2050;-68
2023/07/01 15:56:07;;;;;;;;;;;;;;;23.16;43.62;94917.41;10398179;28;2325;-71
2023/07/01 16:01:08;;;;;;;;;;;;;;;23.21;43.81;94922.53;10381547;28;1917;-68
2023/07/01 16:06:10;;;;;;;;;;;;;;;23.13;42.25;94923.31;10382671;28;1980;-69
2023/07/01 16:11:37;;;;;;;;;;;;;;;23.13;42.03;94925.94;10397794;28;1902;-69
2023/07/01 16:16:37;;;;;;;;;;;;;;;23.16;43.25;94915.53;10398255;28;2040;-67
2023/07/01 16:21:38;;;;;;;;;;;;;;;23.16;42.78;94928.00;10392985;28;1911;-69
2023/07/01 16:26:41;;;;;;;;;;;;;;;23.13;42.11;94929.38;10402971;28;2000;-68
2023/07/01 16:31:42;;;;;;;;;;;;;;;23.18;42.94;94931.09;10405464;28;1957;-67
2023/07/01 16:36:42;;;;;;;;;;;;;;;23.13;41.33;94915.38;10406837;28;1984;-70
2023/07/01 16:41:42;;;;;;;;;;;;;;;23.13;42.22;94918.81;10407607;28;4459;-70
2023/07/01 16:46:49;;;;;;;;;;;;;;;23.09;41.21;94911.78;10386688;28;1884;-69
2023/07/01 16:51:49;;;;;;;;;;;;;;;23.05;40.51;94919.56;10414374;28;2389;-69
2023/07/01 16:56:55;;;;;;;;;;;;;;;23.03;40.45;94915.69;10405569;28;1938;-68
2023/07/01 17:01:56;;;;;;;;;;;;;;;23.08;41.42;94921.59;10400398;28;2049;-69
2023/07/01 17:06:56;;;;;;;;;;;;;;;23.07;40.92;94912.13;10385762;28;2039;-68
2023/07/01 17:11:56;;;;;;;;;;;;;;;23.06;41.36;94918.47;10412648;28;1946;-69
2023/07/01 17:16:57;;;;;;;;;;;;;;;23.06;41.02;94929.03;10385262;28;1938;-69
2023/07/01 17:21:57;;;;;;;;;;;;;;;23.06;41.10;94936.22;10385917;28;1902;-69
2023/07/01 17:26:57;;;;;;;;;;;;;;;23.06;41.17;94929.03;10379663;28;1958;-69
2023/07/01 17:31:57;;;;;;;;;;;;;;;23.05;41.65;94932.00;10402567;28;1938;-69
2023/07/01 17:36:58;;;;;;;;;;;;;;;23.05;41.93;94932.00;10400010;28;1903;-69
2023/07/01 17:41:58;;;;;;;;;;;;;;;23.06;42.01;94942.25;10403459;28;4489;-68
2023/07/01 17:46:58;;;;;;;;;;;;;;;23.04;41.74;94944.44;10401748;28;2293;-69
2023/07/01 17:51:59;;;;;;;;;;;;;;;23.04;41.93;94955.00;10401846;28;1963;-69
2023/07/01 17:57:00;;;;;;;;;;;;;;;23.04;42.04;94951.59;10398720;28;2130;-68
2023/07/01 18:02:00;;;;;;;;;;;;;;;23.04;42.23;94948.97;10394171;28;2145;-67
2023/07/01 18:07:01;;;;;;;;;;;;;;;23.04;42.26;94951.59;10403697;28;2082;-69
2023/07/01 18:12:02;;;;;;;;;;;;;;;23.06;42.49;94954.72;10400232;28;2075;-68
2023/07/01 18:17:03;;;;;;;;;;;;;;;23.06;42.73;94955.47;10384962;28;2001;-68
2023/07/01 18:22:04;;;;;;;;;;;;;;;23.06;42.63;94957.38;10400216;28;1924;-69
2023/07/01 18:27:06;;;;;;;;;;;;;;;23.06;42.77;94958.13;10396599;28;2005;-68
2023/07/01 18:32:08;;;;;;;;;;;;;;;23.05;42.91;94955.78;10399074;28;1871;-68
2023/07/01 18:37:08;;;;;;;;;;;;;;;23.03;43.04;94960.59;10397787;28;1944;-68
2023/07/01 18:42:08;;;;;;;;;;;;;;;23.02;42.97;94959.81;10394290;28;4580;-68
2023/07/01 18:47:08;;;;;;;;;;;;;;;23.01;42.92;94965.44;10380239;28;1896;-68
2023/07/01 18:52:09;;;;;;;;;;;;;;;23.05;43.26;94966.38;10401480;28;1854;-68
2023/07/01 18:57:09;;;;;;;;;;;;;;;23.04;43.28;94965.59;10399203;28;2017;-68
2023/07/01 19:02:09;;;;;;;;;;;;;;;23.05;43.30;94971.66;10398290;28;1961;-68
2023/07/01 19:07:10;;;;;;;;;;;;;;;23.07;43.52;94970.25;10384165;28;1982;-67
2023/07/01 19:12:11;;;;;;;;;;;;;;;23.10;43.79;94974.91;10400842;28;1966;-67
2023/07/01 19:17:11;;;;;;;;;;;;;;;23.10;43.54;94985.50;10377093;28;1916;-68
2023/07/01 19:22:12;;;;;;;;;;;;;;;23.09;43.49;94983.97;10408303;28;1906;-68
2023/07/01 19:27:12;;;;;;;;;;;;;;;23.11;43.61;94989.72;10377631;28;2009;-68
2023/07/01 19:32:13;;;;;;;;;;;;;;;23.11;43.63;94988.94;10397942;28;1898;-67
2023/07/01 19:37:13;;;;;;;;;;;;;;;23.10;43.63;94997.97;10379420;28;2301;-68
2023/07/01 19:42:13;;;;;;;;;;;;;;;23.12;43.84;95016.94;10399181;28;4611;-68
2023/07/01 19:47:13;;;;;;;;;;;;;;;23.12;43.85;95011.66;10394998;28;1969;-68
2023/07/01 19:52:15;;;;;;;;;;;;;;;23.12;43.77;95022.22;10403694;28;1963;-70
2023/07/01 19:57:15;;;;;;;;;;;;;;;23.07;44.11;95028.44;10413367;28;2048;-69
2023/07/01 20:02:15;;;;;;;;;;;;;;;23.07;43.99;95032.91;10390079;28;1946;-69
2023/07/01 20:07:16;;;;;;;;;;;;;;;23.03;43.77;95039.91;10405115;28;1905;-69
2023/07/01 20:12:16;;;;;;;;;;;;;;;22.99;43.79;95049.53;10406864;28;1898;-68
2023/07/01 20:17:17;;;;;;;;;;;;;;;22.97;44.29;95047.19;10401342;28;1999;-67
2023/07/01 20:22:20;;;;;;;;;;;;;;;22.96;44.25;95050.13;10389659;28;1918;-67
2023/07/01 20:27:21;;;;;;;;;;;;;;;22.99;44.37;95050.31;10406626;28;2003;-68
2023/07/01 20:32:22;;;;;;;;;;;;;;;22.99;44.36;95042.41;10382492;28;2071;-69
2023/07/01 20:37:22;;;;;;;;;;;;;;;22.99;44.27;95041.59;10388305;28;2363;-68
2023/07/01 20:42:22;;;;;;;;;;;;;;;22.97;44.52;95047.19;10400785;28;4451;-68
2023/07/01 20:47:23;;;;;;;;;;;;;;;22.95;44.58;95049.38;10389972;28;2151;-70
2023/07/01 20:52:23;;;;;;;;;;;;;;;22.95;44.42;95051.22;10400843;28;2118;-69
2023/07/01 20:57:23;;;;;;;;;;;;;;;22.93;44.40;95054.19;10404794;28;1987;-68
2023/07/01 21:02:23;;;;;;;;;;;;;;;22.94;44.72;95053.09;10403292;28;2021;-68
2023/07/01 21:07:24;;;;;;;;;;;;;;;22.92;44.51;95059.75;10401185;28;2101;-68
2023/07/01 21:12:24;;;;;;;;;;;;;;;22.91;44.90;95058.22;10385111;28;2221;-69
2023/07/01 21:17:26;;;;;;;;;;;;;;;22.89;44.68;95065.66;10397550;28;2035;-67
2023/07/01 21:22:26;;;;;;;;;;;;;;;22.87;44.85;95071.25;10399680;28;2154;-67
2023/07/01 21:27:38;;;;;;;;;;;;;;;22.81;44.73;95077.75;10402668;28;2062;-68
2023/07/01 21:32:40;;;;;;;;;;;;;;;22.86;44.58;95087.41;10404254;28;2377;-65
2023/07/01 21:37:40;;;;;;;;;;;;;;;22.84;45.07;95097.50;10381978;28;1871;-64
2023/07/01 21:42:40;;;;;;;;;;;;;;;22.81;44.99;95116.59;10386451;28;4506;-68
2023/07/01 21:47:41;;;;;;;;;;;;;;;22.77;45.44;95120.94;10399349;28;1966;-68
2023/07/01 21:52:41;;;;;;;;;;;;;;;22.73;46.08;95128.66;10405107;28;1894;-67
2023/07/01 21:57:42;;;;;;;;;;;;;;;22.75;46.48;95138.97;10400012;28;2015;-67
2023/07/01 22:02:42;;;;;;;;;;;;;;;22.72;46.82;95150.13;10400863;28;2009;-68
2023/07/01 22:07:43;;;;;;;;;;;;;;;22.71;46.76;95159.91;10384953;28;1887;-67
2023/07/01 22:12:44;;;;;;;;;;;;;;;22.76;47.09;95162.44;10377648;28;1920;-68
2023/07/01 22:17:44;;;;;;;;;;;;;;;22.78;47.49;95156.84;10398056;28;1902;-69
2023/07/01 22:22:44;;;;;;;;;;;;;;;22.82;47.55;95152.50;10410004;28;1957;-70
2023/07/01 22:27:45;;;;;;;;;;;;;;;22.86;47.72;95143.69;10378488;28;1982;-68
2023/07/01 22:32:45;;;;;;;;;;;;;;;22.89;47.73;95137.81;10406731;28;2074;-68
2023/07/01 22:37:45;;;;;;;;;;;;;;;22.92;47.71;95133.75;10411160;28;1994;-68
2023/07/01 22:42:46;;;;;;;;;;;;;;;22.93;47.79;95135.31;10401362;28;4479;-68
2023/07/01 22:47:46;;;;;;;;;;;;;;;22.98;47.86;95140.50;10394240;28;1946;-67
2023/07/01 22:52:48;;;;;;;;;;;;;;;23.00;47.75;95140.97;10402141;28;1900;-68
2023/07/01 22:57:48;;;;;;;;;;;;;;;23.00;47.85;95125.13;10382075;28;2033;-68
2023/07/01 23:02:49;;;;;;;;;;;;;;;23.01;47.98;95129.31;10401214;28;1984;-68
2023/07/01 23:07:50;;;;;;;;;;;;;;;23.04;47.97;95131.34;10383700;28;1918;-68
2023/07/01 23:12:50;;;;;;;;;;;;;;;23.05;48.34;95130.25;10401076;28;2029;-68
2023/07/01 23:17:50;;;;;;;;;;;;;;;23.05;48.18;95124.97;10398801;28;1930;-68
2023/07/01 23:22:51;;;;;;;;;;;;;;;23.06;48.08;95119.38;10384631;28;2277;-68
2023/07/01 23:27:52;;;;;;;;;;;;;;;23.06;48.46;95124.66;10406050;28;2000;-68
2023/07/01 23:32:53;;;;;;;;;;;;;;;23.08;48.25;95121.72;10408126;28;1878;-69
2023/07/01 23:37:55;;;;;;;;;;;;;;;23.07;48.27;95123.59;10407166;28;2024;-68
2023/07/01 23:42:55;;;;;;;;;;;;;;;23.08;48.36;95122.50;10410197;28;4541;-69
2023/07/01 23:47:55;;;;;;;;;;;;;;;23.10;48.53;95119.56;10401220;28;2078;-68
2023/07/01 23:52:56;;;;;;;;;;;;;;;23.09;48.50;95118.00;10402559;28;2064;-68
2023/07/01 23:57:56;;;;;;;;;;;;;;;23.09;48.66;95118.00;10406612;28;1912;-68
